sensor_id;sensor_type;location;lat;lon;timestamp;pressure;altitude;pressure_sealevel;temperature;humidity
12801;BME280;6464;42.494;27.470;2023-06-14T04:02:51;99369.63;;;16.40;100.00
12801;BME280;6464;42.494;27.470;2023-06-14T04:05:18;99460.06;;;16.83;100.00
12801;BME280;6464;42.494;27.470;2023-06-14T04:07:48;99485.19;;;17.06;100.00
12801;BME280;6464;42.494;27.470;2023-06-14T04:10:29;99382.06;;;16.54;100.00
12801;BME280;6464;42.494;27.470;2023-06-14T04:13:07;99413.19;;;16.66;100.00
12801;BME280;6464;42.494;27.470;2023-06-14T04:15:43;99514.19;;;17.52;100.00
12801;BME280;6464;42.494;27.470;2023-06-14T04:18:14;99551.63;;;17.63;100.00
12801;BME280;6464;42.494;27.470;2023-06-14T04:23:38;99497.88;;;17.57;100.00
12801;BME280;6464;42.494;27.470;2023-06-14T04:26:10;99410.88;;;16.89;100.00
12801;BME280;6464;42.494;27.470;2023-06-14T04:28:40;99514.41;;;17.35;100.00
12801;BME280;6464;42.494;27.470;2023-06-14T04:31:21;99541.91;;;17.35;100.00
12801;BME280;6464;42.494;27.470;2023-06-14T04:33:56;99547.72;;;17.42;100.00
12801;BME280;6464;42.494;27.470;2023-06-14T04:36:25;99563.22;;;17.77;100.00
12801;BME280;6464;42.494;27.470;2023-06-14T04:47:02;99735.03;;;18.41;100.00
12801;BME280;6464;42.494;27.470;2023-06-14T04:54:53;99743.38;;;17.95;100.00
12801;BME280;6464;42.494;27.470;2023-06-14T05:00:03;99705.00;;;17.69;100.00
12801;BME280;6464;42.494;27.470;2023-06-14T05:02:44;99912.81;;;18.58;100.00
12801;BME280;6464;42.494;27.470;2023-06-14T05:05:20;99701.16;;;17.75;100.00
12801;BME280;6464;42.494;27.470;2023-06-14T05:07:51;99794.56;;;18.29;100.00
12801;BME280;6464;42.494;27.470;2023-06-14T05:10:37;99817.66;;;18.15;100.00
12801;BME280;6464;42.494;27.470;2023-06-14T05:13:14;99858.31;;;18.47;100.00
12801;BME280;6464;42.494;27.470;2023-06-14T05:18:19;99782.31;;;18.12;100.00
12801;BME280;6464;42.494;27.470;2023-06-14T05:21:01;99960.72;;;19.02;100.00
12801;BME280;6464;42.494;27.470;2023-06-14T05:23:43;99759.81;;;18.16;100.00
12801;BME280;6464;42.494;27.470;2023-06-14T05:26:22;99952.03;;;19.25;100.00
12801;BME280;6464;42.494;27.470;2023-06-14T05:28:54;99823.69;;;18.46;100.00
12801;BME280;6464;42.494;27.470;2023-06-14T05:31:28;99974.41;;;19.64;100.00
12801;BME280;6464;42.494;27.470;2023-06-14T05:37:19;99928.75;;;19.53;100.00
12801;BME280;6464;42.494;27.470;2023-06-14T05:40:00;100024.56;;;20.13;100.00
12801;BME280;6464;42.494;27.470;2023-06-14T05:49:12;100117.41;;;20.65;100.00
12801;BME280;6464;42.494;27.470;2023-06-14T05:51:43;100049.81;;;20.09;100.00
12801;BME280;6464;42.494;27.470;2023-06-14T05:54:50;100155.97;;;20.63;100.00
12801;BME280;6464;42.494;27.470;2023-06-14T05:57:44;100131.94;;;20.48;100.00
12801;BME280;6464;42.494;27.470;2023-06-14T06:06:53;100140.94;;;21.11;100.00
12801;BME280;6464;42.494;27.470;2023-06-14T06:09:20;100174.72;;;21.39;100.00
12801;BME280;6464;42.494;27.470;2023-06-14T06:11:48;100144.38;;;21.13;100.00
12801;BME280;6464;42.494;27.470;2023-06-14T06:14:15;100199.06;;;21.36;100.00
12801;BME280;6464;42.494;27.470;2023-06-14T06:16:42;100261.88;;;21.83;100.00
12801;BME280;6464;42.494;27.470;2023-06-14T06:19:09;100226.72;;;21.62;100.00
12801;BME280;6464;42.494;27.470;2023-06-14T06:21:36;100261.16;;;21.68;100.00
12801;BME280;6464;42.494;27.470;2023-06-14T06:24:07;100261.06;;;21.57;100.00
12801;BME280;6464;42.494;27.470;2023-06-14T06:26:34;100261.03;;;21.70;100.00
12801;BME280;6464;42.494;27.470;2023-06-14T06:29:11;100227.59;;;21.50;100.00
12801;BME280;6464;42.494;27.470;2023-06-14T06:32:16;100226.31;;;21.43;100.00
12801;BME280;6464;42.494;27.470;2023-06-14T06:34:47;100161.63;;;21.35;100.00
12801;BME280;6464;42.494;27.470;2023-06-14T06:37:20;100185.84;;;21.46;100.00
12801;BME280;6464;42.494;27.470;2023-06-14T06:42:32;100230.91;;;21.15;100.00
12801;BME280;6464;42.494;27.470;2023-06-14T06:45:13;100190.59;;;21.04;100.00
12801;BME280;6464;42.494;27.470;2023-06-14T06:48:06;100204.63;;;21.20;100.00
12801;BME280;6464;42.494;27.470;2023-06-14T06:50:54;100180.94;;;21.76;100.00
12801;BME280;6464;42.494;27.470;2023-06-14T06:56:48;100290.97;;;22.26;100.00
12801;BME280;6464;42.494;27.470;2023-06-14T07:00:27;100108.13;;;21.57;100.00
12801;BME280;6464;42.494;27.470;2023-06-14T07:02:56;100207.28;;;22.43;100.00
12801;BME280;6464;42.494;27.470;2023-06-14T07:05:23;100255.06;;;22.86;100.00
12801;BME280;6464;42.494;27.470;2023-06-14T07:07:50;100226.47;;;22.39;100.00
12801;BME280;6464;42.494;27.470;2023-06-14T07:10:56;100227.88;;;21.95;100.00
12801;BME280;6464;42.494;27.470;2023-06-14T07:13:38;100285.44;;;22.40;100.00
12801;BME280;6464;42.494;27.470;2023-06-14T07:16:07;100305.09;;;22.89;100.00
12801;BME280;6464;42.494;27.470;2023-06-14T07:18:35;100295.66;;;23.18;100.00
12801;BME280;6464;42.494;27.470;2023-06-14T07:21:03;100224.84;;;22.71;100.00
12801;BME280;6464;42.494;27.470;2023-06-14T07:23:30;100326.09;;;23.19;100.00
12801;BME280;6464;42.494;27.470;2023-06-14T07:25:57;100328.69;;;23.31;100.00
12801;BME280;6464;42.494;27.470;2023-06-14T07:28:24;100324.56;;;23.61;100.00
12801;BME280;6464;42.494;27.470;2023-06-14T07:30:52;100327.97;;;23.63;100.00
12801;BME280;6464;42.494;27.470;2023-06-14T07:33:21;100238.16;;;22.97;100.00
12801;BME280;6464;42.494;27.470;2023-06-14T07:35:48;100324.56;;;23.61;100.00
12801;BME280;6464;42.494;27.470;2023-06-14T07:38:15;100250.03;;;23.28;100.00
12801;BME280;6464;42.494;27.470;2023-06-14T07:40:42;100245.38;;;23.19;100.00
12801;BME280;6464;42.494;27.470;2023-06-14T07:43:09;100294.44;;;23.22;100.00
12801;BME280;6464;42.494;27.470;2023-06-14T07:45:37;100288.94;;;23.35;100.00
12801;BME280;6464;42.494;27.470;2023-06-14T07:48:04;100282.84;;;23.55;100.00
12801;BME280;6464;42.494;27.470;2023-06-14T07:50:33;100282.16;;;23.65;100.00
12801;BME280;6464;42.494;27.470;2023-06-14T07:53:00;100330.72;;;23.97;100.00
12801;BME280;6464;42.494;27.470;2023-06-14T07:55:27;100335.94;;;24.21;100.00
12801;BME280;6464;42.494;27.470;2023-06-14T07:57:54;100323.97;;;24.02;100.00
12801;BME280;6464;42.494;27.470;2023-06-14T08:00:21;100335.63;;;23.80;100.00
12801;BME280;6464;42.494;27.470;2023-06-14T08:02:48;100319.69;;;24.00;100.00
12801;BME280;6464;42.494;27.470;2023-06-14T08:05:16;100284.31;;;23.59;100.00
12801;BME280;6464;42.494;27.470;2023-06-14T08:07:44;100308.19;;;24.09;100.00
12801;BME280;6464;42.494;27.470;2023-06-14T08:10:11;100298.47;;;24.72;100.00
12801;BME280;6464;42.494;27.470;2023-06-14T08:12:38;100342.66;;;25.13;100.00
12801;BME280;6464;42.494;27.470;2023-06-14T08:15:05;100313.41;;;24.76;100.00
12801;BME280;6464;42.494;27.470;2023-06-14T08:17:33;100344.34;;;24.93;100.00
12801;BME280;6464;42.494;27.470;2023-06-14T08:20:00;100347.06;;;25.14;100.00
12801;BME280;6464;42.494;27.470;2023-06-14T08:22:27;100325.75;;;24.79;100.00
12801;BME280;6464;42.494;27.470;2023-06-14T08:24:58;100348.94;;;24.81;100.00
12801;BME280;6464;42.494;27.470;2023-06-14T08:27:26;100357.22;;;25.22;100.00
12801;BME280;6464;42.494;27.470;2023-06-14T08:29:53;100335.09;;;24.75;100.00
12801;BME280;6464;42.494;27.470;2023-06-14T08:32:20;100349.19;;;24.78;100.00
12801;BME280;6464;42.494;27.470;2023-06-14T08:34:47;100296.78;;;24.92;100.00
12801;BME280;6464;42.494;27.470;2023-06-14T08:37:14;100340.56;;;25.37;100.00
12801;BME280;6464;42.494;27.470;2023-06-14T08:39:42;100336.50;;;25.74;100.00
12801;BME280;6464;42.494;27.470;2023-06-14T08:42:11;100313.00;;;26.35;100.00
12801;BME280;6464;42.494;27.470;2023-06-14T08:44:39;100332.53;;;26.97;100.00
12801;BME280;6464;42.494;27.470;2023-06-14T08:47:07;100358.63;;;27.37;100.00
12801;BME280;6464;42.494;27.470;2023-06-14T08:49:36;100383.97;;;27.26;100.00
12801;BME280;6464;42.494;27.470;2023-06-14T08:52:07;100348.41;;;26.32;100.00
12801;BME280;6464;42.494;27.470;2023-06-14T08:54:36;100345.53;;;26.24;100.00
12801;BME280;6464;42.494;27.470;2023-06-14T08:57:11;100334.53;;;26.66;100.00
12801;BME280;6464;42.494;27.470;2023-06-14T08:59:46;100356.78;;;26.89;100.00
12801;BME280;6464;42.494;27.470;2023-06-14T09:02:17;100319.88;;;26.88;100.00
12801;BME280;6464;42.494;27.470;2023-06-14T09:04:45;100381.56;;;27.33;100.00
12801;BME280;6464;42.494;27.470;2023-06-14T09:07:12;100361.03;;;27.01;100.00
12801;BME280;6464;42.494;27.470;2023-06-14T09:09:39;100349.41;;;26.31;100.00
12801;BME280;6464;42.494;27.470;2023-06-14T09:12:08;100324.63;;;26.26;100.00
12801;BME280;6464;42.494;27.470;2023-06-14T09:14:38;100263.78;;;25.92;100.00
12801;BME280;6464;42.494;27.470;2023-06-14T09:17:07;100268.00;;;26.25;100.00
12801;BME280;6464;42.494;27.470;2023-06-14T09:19:35;100323.28;;;26.51;100.00
12801;BME280;6464;42.494;27.470;2023-06-14T09:22:03;100295.81;;;26.46;100.00
12801;BME280;6464;42.494;27.470;2023-06-14T09:24:30;100260.63;;;26.36;100.00
12801;BME280;6464;42.494;27.470;2023-06-14T09:26:57;100208.22;;;25.99;100.00
12801;BME280;6464;42.494;27.470;2023-06-14T09:29:24;100265.34;;;26.54;100.00
12801;BME280;6464;42.494;27.470;2023-06-14T09:31:54;100298.38;;;26.96;100.00
12801;BME280;6464;42.494;27.470;2023-06-14T09:34:21;100266.34;;;26.72;100.00
12801;BME280;6464;42.494;27.470;2023-06-14T09:36:50;100213.22;;;26.13;100.00
12801;BME280;6464;42.494;27.470;2023-06-14T09:39:17;100280.00;;;27.00;100.00
12801;BME280;6464;42.494;27.470;2023-06-14T09:41:44;100387.66;;;28.48;100.00
12801;BME280;6464;42.494;27.470;2023-06-14T09:44:11;100415.41;;;28.60;100.00
12801;BME280;6464;42.494;27.470;2023-06-14T09:46:39;100749.38;;;30.43;100.00
12801;BME280;6464;42.494;27.470;2023-06-14T09:49:08;100690.19;;;30.09;100.00
12801;BME280;6464;42.494;27.470;2023-06-14T09:51:36;100866.13;;;30.82;100.00
12801;BME280;6464;42.494;27.470;2023-06-14T09:54:14;100843.81;;;30.51;100.00
12801;BME280;6464;42.494;27.470;2023-06-14T09:56:44;100959.00;;;31.68;100.00
12801;BME280;6464;42.494;27.470;2023-06-14T09:59:12;101037.06;;;31.69;100.00
12801;BME280;6464;42.494;27.470;2023-06-14T10:01:42;101071.22;;;31.81;100.00
12801;BME280;6464;42.494;27.470;2023-06-14T10:04:10;101050.59;;;31.96;100.00
12801;BME280;6464;42.494;27.470;2023-06-14T10:06:40;100968.06;;;31.51;100.00
12801;BME280;6464;42.494;27.470;2023-06-14T10:09:09;100951.69;;;31.51;100.00
12801;BME280;6464;42.494;27.470;2023-06-14T10:11:37;100869.41;;;30.85;100.00
12801;BME280;6464;42.494;27.470;2023-06-14T10:14:09;100923.03;;;31.46;100.00
12801;BME280;6464;42.494;27.470;2023-06-14T10:16:41;100812.03;;;30.69;100.00
12801;BME280;6464;42.494;27.470;2023-06-14T10:19:17;100954.13;;;31.00;100.00
12801;BME280;6464;42.494;27.470;2023-06-14T10:21:54;100859.78;;;31.35;100.00
12801;BME280;6464;42.494;27.470;2023-06-14T10:24:29;101165.38;;;32.91;100.00
12801;BME280;6464;42.494;27.470;2023-06-14T10:26:57;101300.56;;;34.15;100.00
12801;BME280;6464;42.494;27.470;2023-06-14T10:29:25;101306.38;;;34.12;100.00
12801;BME280;6464;42.494;27.470;2023-06-14T10:31:56;101280.13;;;33.93;100.00
12801;BME280;6464;42.494;27.470;2023-06-14T10:34:26;101370.00;;;35.14;100.00
12801;BME280;6464;42.494;27.470;2023-06-14T10:37:01;101539.72;;;37.39;100.00
12801;BME280;6464;42.494;27.470;2023-06-14T10:39:29;101604.78;;;38.60;100.00
12801;BME280;6464;42.494;27.470;2023-06-14T10:41:57;101643.56;;;40.03;100.00
12801;BME280;6464;42.494;27.470;2023-06-14T10:44:41;101640.00;;;40.66;100.00
12801;BME280;6464;42.494;27.470;2023-06-14T10:47:10;101625.28;;;40.24;100.00
12801;BME280;6464;42.494;27.470;2023-06-14T10:49:41;101589.59;;;39.79;100.00
12801;BME280;6464;42.494;27.470;2023-06-14T10:52:09;101621.25;;;41.02;100.00
12801;BME280;6464;42.494;27.470;2023-06-14T10:55:01;101613.72;;;40.14;100.00
12801;BME280;6464;42.494;27.470;2023-06-14T10:57:29;101644.88;;;41.05;100.00
12801;BME280;6464;42.494;27.470;2023-06-14T10:59:57;101664.22;;;41.66;100.00
12801;BME280;6464;42.494;27.470;2023-06-14T11:02:51;101624.22;;;40.53;100.00
12801;BME280;6464;42.494;27.470;2023-06-14T11:05:29;101558.88;;;38.23;100.00
12801;BME280;6464;42.494;27.470;2023-06-14T11:10:50;101294.66;;;33.43;100.00
12801;BME280;6464;42.494;27.470;2023-06-14T11:13:17;101296.28;;;33.36;100.00
12801;BME280;6464;42.494;27.470;2023-06-14T11:15:45;101447.50;;;36.12;100.00
12801;BME280;6464;42.494;27.470;2023-06-14T11:18:13;101524.28;;;37.07;100.00
12801;BME280;6464;42.494;27.470;2023-06-14T11:20:46;101576.53;;;38.73;100.00
12801;BME280;6464;42.494;27.470;2023-06-14T11:23:13;101584.25;;;39.14;100.00
12801;BME280;6464;42.494;27.470;2023-06-14T11:25:40;101512.47;;;38.35;100.00
12801;BME280;6464;42.494;27.470;2023-06-14T11:28:07;101535.47;;;38.78;100.00
12801;BME280;6464;42.494;27.470;2023-06-14T11:30:36;101584.28;;;39.35;100.00
12801;BME280;6464;42.494;27.470;2023-06-14T11:33:03;101538.53;;;37.94;100.00
12801;BME280;6464;42.494;27.470;2023-06-14T11:35:30;101414.81;;;34.05;100.00
12801;BME280;6464;42.494;27.470;2023-06-14T11:37:58;101185.50;;;31.57;100.00
12801;BME280;6464;42.494;27.470;2023-06-14T11:40:26;101216.78;;;31.62;100.00
12801;BME280;6464;42.494;27.470;2023-06-14T11:42:58;101209.91;;;32.04;100.00
12801;BME280;6464;42.494;27.470;2023-06-14T11:45:26;100934.66;;;31.48;100.00
12801;BME280;6464;42.494;27.470;2023-06-14T11:47:55;100970.38;;;31.63;100.00
12801;BME280;6464;42.494;27.470;2023-06-14T11:50:23;101059.81;;;31.60;100.00
12801;BME280;6464;42.494;27.470;2023-06-14T11:52:52;101076.06;;;31.69;100.00
12801;BME280;6464;42.494;27.470;2023-06-14T11:55:21;101095.34;;;31.68;100.00
12801;BME280;6464;42.494;27.470;2023-06-14T11:57:48;101082.72;;;32.55;100.00
12801;BME280;6464;42.494;27.470;2023-06-14T12:00:16;101179.38;;;33.81;100.00
12801;BME280;6464;42.494;27.470;2023-06-14T12:02:52;101279.53;;;34.81;100.00
12801;BME280;6464;42.494;27.470;2023-06-14T12:05:21;101327.63;;;35.33;100.00
12801;BME280;6464;42.494;27.470;2023-06-14T12:07:48;101500.56;;;38.34;100.00
12801;BME280;6464;42.494;27.470;2023-06-14T12:10:16;101493.53;;;37.87;100.00
12801;BME280;6464;42.494;27.470;2023-06-14T12:12:44;101423.47;;;35.26;100.00
12801;BME280;6464;42.494;27.470;2023-06-14T12:15:12;101278.16;;;33.61;100.00
12801;BME280;6464;42.494;27.470;2023-06-14T12:17:39;101082.25;;;32.15;100.00
12801;BME280;6464;42.494;27.470;2023-06-14T12:20:10;101033.56;;;32.29;100.00
12801;BME280;6464;42.494;27.470;2023-06-14T12:22:39;101285.34;;;34.94;100.00
12801;BME280;6464;42.494;27.470;2023-06-14T12:25:06;101262.16;;;35.29;100.00
12801;BME280;6464;42.494;27.470;2023-06-14T12:27:35;101343.31;;;36.11;100.00
12801;BME280;6464;42.494;27.470;2023-06-14T12:30:04;101377.75;;;36.98;100.00
12801;BME280;6464;42.494;27.470;2023-06-14T12:32:33;101461.50;;;38.45;100.00
12801;BME280;6464;42.494;27.470;2023-06-14T12:35:00;101512.56;;;39.85;100.00
12801;BME280;6464;42.494;27.470;2023-06-14T12:37:27;101525.91;;;40.98;100.00
12801;BME280;6464;42.494;27.470;2023-06-14T12:39:54;101561.72;;;42.06;100.00
12801;BME280;6464;42.494;27.470;2023-06-14T12:42:21;101575.75;;;41.18;100.00
12801;BME280;6464;42.494;27.470;2023-06-14T12:44:48;101543.88;;;40.74;100.00
12801;BME280;6464;42.494;27.470;2023-06-14T12:47:16;101563.00;;;40.69;100.00
12801;BME280;6464;42.494;27.470;2023-06-14T12:49:43;101584.09;;;42.11;100.00
12801;BME280;6464;42.494;27.470;2023-06-14T12:52:11;101596.19;;;42.56;100.00
12801;BME280;6464;42.494;27.470;2023-06-14T12:54:37;101534.00;;;41.06;100.00
12801;BME280;6464;42.494;27.470;2023-06-14T12:57:05;101509.59;;;40.21;100.00
12801;BME280;6464;42.494;27.470;2023-06-14T12:59:32;101431.41;;;38.14;100.00
12801;BME280;6464;42.494;27.470;2023-06-14T13:02:10;101453.97;;;38.39;100.00
12801;BME280;6464;42.494;27.470;2023-06-14T13:04:38;101199.69;;;33.70;100.00
12801;BME280;6464;42.494;27.470;2023-06-14T13:07:05;101106.88;;;32.75;100.00
12801;BME280;6464;42.494;27.470;2023-06-14T13:09:32;100863.22;;;31.71;100.00
12801;BME280;6464;42.494;27.470;2023-06-14T13:11:59;100813.97;;;30.94;100.00
12801;BME280;6464;42.494;27.470;2023-06-14T13:14:26;100582.59;;;30.77;100.00
12801;BME280;6464;42.494;27.470;2023-06-14T13:16:53;100614.31;;;30.68;100.00
12801;BME280;6464;42.494;27.470;2023-06-14T13:19:20;100667.16;;;31.35;100.00
12801;BME280;6464;42.494;27.470;2023-06-14T13:21:49;100755.84;;;32.06;100.00
12801;BME280;6464;42.494;27.470;2023-06-14T13:24:16;100764.09;;;31.80;100.00
12801;BME280;6464;42.494;27.470;2023-06-14T13:26:44;100652.34;;;31.96;100.00
12801;BME280;6464;42.494;27.470;2023-06-14T13:29:12;100807.97;;;32.86;100.00
12801;BME280;6464;42.494;27.470;2023-06-14T13:31:41;100951.94;;;33.92;100.00
12801;BME280;6464;42.494;27.470;2023-06-14T13:34:09;101250.06;;;35.94;100.00
12801;BME280;6464;42.494;27.470;2023-06-14T13:36:36;101175.97;;;35.94;100.00
12801;BME280;6464;42.494;27.470;2023-06-14T13:39:05;101264.78;;;36.24;100.00
12801;BME280;6464;42.494;27.470;2023-06-14T13:41:32;101350.41;;;36.59;100.00
12801;BME280;6464;42.494;27.470;2023-06-14T13:44:01;101278.97;;;36.74;100.00
12801;BME280;6464;42.494;27.470;2023-06-14T13:46:29;101380.78;;;37.41;100.00
12801;BME280;6464;42.494;27.470;2023-06-14T13:48:56;101396.47;;;38.51;100.00
12801;BME280;6464;42.494;27.470;2023-06-14T13:51:24;101455.53;;;39.49;100.00
12801;BME280;6464;42.494;27.470;2023-06-14T13:53:53;101416.13;;;39.05;100.00
12801;BME280;6464;42.494;27.470;2023-06-14T13:56:22;101452.97;;;38.98;100.00
12801;BME280;6464;42.494;27.470;2023-06-14T13:58:50;101468.25;;;39.00;100.00
12801;BME280;6464;42.494;27.470;2023-06-14T14:01:17;101431.47;;;37.47;100.00
12801;BME280;6464;42.494;27.470;2023-06-14T14:03:45;101383.44;;;36.97;100.00
12801;BME280;6464;42.494;27.470;2023-06-14T14:06:12;101330.94;;;34.87;100.00
12801;BME280;6464;42.494;27.470;2023-06-14T14:08:39;101235.41;;;34.43;100.00
12801;BME280;6464;42.494;27.470;2023-06-14T14:11:06;101160.41;;;33.71;100.00
12801;BME280;6464;42.494;27.470;2023-06-14T14:13:36;101267.53;;;34.90;100.00
12801;BME280;6464;42.494;27.470;2023-06-14T14:16:04;101370.19;;;36.54;100.00
12801;BME280;6464;42.494;27.470;2023-06-14T14:18:31;101435.75;;;37.49;100.00
12801;BME280;6464;42.494;27.470;2023-06-14T14:20:58;101135.66;;;33.38;100.00
12801;BME280;6464;42.494;27.470;2023-06-14T14:23:26;100769.69;;;32.21;100.00
12801;BME280;6464;42.494;27.470;2023-06-14T14:25:53;100584.56;;;31.51;100.00
12801;BME280;6464;42.494;27.470;2023-06-14T14:28:20;100732.00;;;32.33;100.00
12801;BME280;6464;42.494;27.470;2023-06-14T14:30:48;100605.97;;;32.45;100.00
12801;BME280;6464;42.494;27.470;2023-06-14T14:33:15;100617.41;;;31.92;100.00
12801;BME280;6464;42.494;27.470;2023-06-14T14:35:43;100539.81;;;32.11;100.00
12801;BME280;6464;42.494;27.470;2023-06-14T14:38:11;100657.09;;;32.84;100.00
12801;BME280;6464;42.494;27.470;2023-06-14T14:40:39;100800.31;;;33.14;100.00
12801;BME280;6464;42.494;27.470;2023-06-14T14:43:06;100628.09;;;31.85;100.00
12801;BME280;6464;42.494;27.470;2023-06-14T14:45:33;100622.00;;;31.91;100.00
12801;BME280;6464;42.494;27.470;2023-06-14T14:48:01;100501.19;;;31.16;100.00
12801;BME280;6464;42.494;27.470;2023-06-14T14:50:28;100623.88;;;31.83;100.00
12801;BME280;6464;42.494;27.470;2023-06-14T14:52:55;100613.03;;;31.57;100.00
12801;BME280;6464;42.494;27.470;2023-06-14T14:55:22;100600.41;;;31.47;100.00
12801;BME280;6464;42.494;27.470;2023-06-14T14:57:49;100487.84;;;30.88;100.00
12801;BME280;6464;42.494;27.470;2023-06-14T15:00:17;100501.53;;;31.13;100.00
12801;BME280;6464;42.494;27.470;2023-06-14T15:02:44;100803.38;;;32.70;100.00
12801;BME280;6464;42.494;27.470;2023-06-14T15:05:13;101083.03;;;34.42;100.00
12801;BME280;6464;42.494;27.470;2023-06-14T15:07:39;101164.78;;;34.86;100.00
12801;BME280;6464;42.494;27.470;2023-06-14T15:10:07;101068.41;;;34.19;100.00
12801;BME280;6464;42.494;27.470;2023-06-14T15:12:35;101178.19;;;34.73;100.00
12801;BME280;6464;42.494;27.470;2023-06-14T15:15:03;101215.34;;;34.75;100.00
12801;BME280;6464;42.494;27.470;2023-06-14T15:17:30;101269.34;;;35.47;100.00
12801;BME280;6464;42.494;27.470;2023-06-14T15:19:57;101301.91;;;35.81;100.00
12801;BME280;6464;42.494;27.470;2023-06-14T15:22:25;101329.56;;;36.11;100.00
12801;BME280;6464;42.494;27.470;2023-06-14T15:24:52;101337.44;;;36.22;100.00
12801;BME280;6464;42.494;27.470;2023-06-14T15:27:19;101320.53;;;35.63;100.00
12801;BME280;6464;42.494;27.470;2023-06-14T15:29:46;101296.03;;;35.61;100.00
12801;BME280;6464;42.494;27.470;2023-06-14T15:32:13;101239.88;;;34.53;100.00
12801;BME280;6464;42.494;27.470;2023-06-14T15:34:40;101228.56;;;34.64;100.00
12801;BME280;6464;42.494;27.470;2023-06-14T15:37:07;101277.13;;;34.94;100.00
12801;BME280;6464;42.494;27.470;2023-06-14T15:39:35;101291.34;;;34.90;100.00
12801;BME280;6464;42.494;27.470;2023-06-14T15:42:03;101298.56;;;34.99;100.00
12801;BME280;6464;42.494;27.470;2023-06-14T15:44:30;101228.97;;;33.86;100.00
12801;BME280;6464;42.494;27.470;2023-06-14T15:46:56;101189.25;;;33.65;100.00
12801;BME280;6464;42.494;27.470;2023-06-14T15:49:23;101194.59;;;33.83;100.00
12801;BME280;6464;42.494;27.470;2023-06-14T15:51:51;101135.25;;;33.17;100.00
12801;BME280;6464;42.494;27.470;2023-06-14T15:54:18;101048.69;;;32.41;100.00
12801;BME280;6464;42.494;27.470;2023-06-14T15:56:46;101067.16;;;32.89;100.00
12801;BME280;6464;42.494;27.470;2023-06-14T15:59:13;101035.81;;;33.02;100.00
12801;BME280;6464;42.494;27.470;2023-06-14T16:01:40;101076.53;;;33.29;100.00
12801;BME280;6464;42.494;27.470;2023-06-14T16:04:07;101026.47;;;32.70;100.00
12801;BME280;6464;42.494;27.470;2023-06-14T16:06:34;101005.66;;;32.69;100.00
12801;BME280;6464;42.494;27.470;2023-06-14T16:09:02;100849.22;;;31.66;100.00
12801;BME280;6464;42.494;27.470;2023-06-14T16:11:29;100708.53;;;30.61;100.00
12801;BME280;6464;42.494;27.470;2023-06-14T16:13:57;100576.34;;;30.32;100.00
12801;BME280;6464;42.494;27.470;2023-06-14T16:16:24;100570.38;;;30.29;100.00
12801;BME280;6464;42.494;27.470;2023-06-14T16:18:52;100573.06;;;30.55;100.00
12801;BME280;6464;42.494;27.470;2023-06-14T16:21:19;100578.41;;;30.64;100.00
12801;BME280;6464;42.494;27.470;2023-06-14T16:23:45;100575.94;;;30.71;100.00
12801;BME280;6464;42.494;27.470;2023-06-14T16:26:12;100535.41;;;30.16;100.00
12801;BME280;6464;42.494;27.470;2023-06-14T16:28:40;100277.88;;;28.78;100.00
12801;BME280;6464;42.494;27.470;2023-06-14T16:31:10;100304.41;;;29.02;100.00
12801;BME280;6464;42.494;27.470;2023-06-14T16:33:40;100047.19;;;28.00;100.00
12801;BME280;6464;42.494;27.470;2023-06-14T16:36:06;99927.03;;;27.91;100.00
12801;BME280;6464;42.494;27.470;2023-06-14T16:38:33;99976.16;;;28.40;100.00
12801;BME280;6464;42.494;27.470;2023-06-14T16:41:00;99990.69;;;28.13;100.00
12801;BME280;6464;42.494;27.470;2023-06-14T16:43:27;100008.47;;;28.60;100.00
12801;BME280;6464;42.494;27.470;2023-06-14T16:45:54;99921.53;;;27.83;100.00
12801;BME280;6464;42.494;27.470;2023-06-14T16:48:22;99936.94;;;27.83;100.00
12801;BME280;6464;42.494;27.470;2023-06-14T16:50:49;99878.91;;;27.41;100.00
12801;BME280;6464;42.494;27.470;2023-06-14T16:53:16;99865.88;;;27.45;100.00
12801;BME280;6464;42.494;27.470;2023-06-14T16:55:43;99868.53;;;27.37;100.00
12801;BME280;6464;42.494;27.470;2023-06-14T16:58:10;99860.72;;;27.34;100.00
12801;BME280;6464;42.494;27.470;2023-06-14T17:00:37;99913.75;;;27.45;100.00
12801;BME280;6464;42.494;27.470;2023-06-14T17:03:04;99864.13;;;26.27;100.00
12801;BME280;6464;42.494;27.470;2023-06-14T17:05:32;99847.69;;;26.38;100.00
12801;BME280;6464;42.494;27.470;2023-06-14T17:07:59;99861.38;;;26.37;100.00
12801;BME280;6464;42.494;27.470;2023-06-14T17:10:27;99875.09;;;26.26;100.00
12801;BME280;6464;42.494;27.470;2023-06-14T17:12:54;99850.19;;;25.95;100.00
12801;BME280;6464;42.494;27.470;2023-06-14T17:15:21;99862.97;;;25.36;100.00
12801;BME280;6464;42.494;27.470;2023-06-14T17:17:48;99847.59;;;24.88;100.00
12801;BME280;6464;42.494;27.470;2023-06-14T17:20:15;99841.34;;;24.68;100.00
12801;BME280;6464;42.494;27.470;2023-06-14T17:22:43;99806.59;;;24.15;100.00
12801;BME280;6464;42.494;27.470;2023-06-14T17:25:10;99862.31;;;24.55;100.00
12801;BME280;6464;42.494;27.470;2023-06-14T17:27:37;99870.53;;;24.53;100.00
12801;BME280;6464;42.494;27.470;2023-06-14T17:30:05;99840.38;;;24.29;100.00
12801;BME280;6464;42.494;27.470;2023-06-14T17:32:32;99900.31;;;24.42;100.00
12801;BME280;6464;42.494;27.470;2023-06-14T17:34:59;99854.00;;;23.97;100.00
12801;BME280;6464;42.494;27.470;2023-06-14T17:37:27;99900.59;;;23.88;100.00
12801;BME280;6464;42.494;27.470;2023-06-14T17:39:56;99889.31;;;23.94;100.00
12801;BME280;6464;42.494;27.470;2023-06-14T17:42:23;99864.81;;;23.76;100.00
12801;BME280;6464;42.494;27.470;2023-06-14T17:44:50;99897.25;;;23.95;100.00